sensor_id;sensor_type;location;lat;lon;timestamp;pressure;altitude;pressure_sealevel;temperature;humidity
5954;BME280;3002;42.642;24.812;2023-05-11T00:00:07;96842.81;;;13.74;89.91
5954;BME280;3002;42.642;24.812;2023-05-11T00:02:34;96850.25;;;13.50;88.72
5954;BME280;3002;42.642;24.812;2023-05-11T00:05:00;96846.34;;;13.42;87.57
5954;BME280;3002;42.642;24.812;2023-05-11T00:07:27;96859.38;;;13.35;88.89
5954;BME280;3002;42.642;24.812;2023-05-11T00:09:53;96839.25;;;13.32;87.45
5954;BME280;3002;42.642;24.812;2023-05-11T00:12:18;96846.66;;;13.54;84.94
5954;BME280;3002;42.642;24.812;2023-05-11T00:14:43;96854.94;;;13.44;83.13
5954;BME280;3002;42.642;24.812;2023-05-11T00:17:09;96852.00;;;13.27;84.11
5954;BME280;3002;42.642;24.812;2023-05-11T00:19:36;96866.63;;;13.21;84.13
5954;BME280;3002;42.642;24.812;2023-05-11T00:22:01;96858.19;;;13.27;84.92
5954;BME280;3002;42.642;24.812;2023-05-11T00:24:27;96859.91;;;13.18;85.38
5954;BME280;3002;42.642;24.812;2023-05-11T00:26:52;96872.94;;;13.11;85.44
5954;BME280;3002;42.642;24.812;2023-05-11T00:29:18;96875.63;;;13.11;84.43
5954;BME280;3002;42.642;24.812;2023-05-11T00:31:43;96855.69;;;13.12;85.51
5954;BME280;3002;42.642;24.812;2023-05-11T00:34:15;96879.91;;;13.31;82.85
5954;BME280;3002;42.642;24.812;2023-05-11T00:36:42;96885.44;;;13.39;81.52
5954;BME280;3002;42.642;24.812;2023-05-11T00:39:11;96856.66;;;13.21;81.90
5954;BME280;3002;42.642;24.812;2023-05-11T00:41:37;96870.50;;;12.96;85.49
5954;BME280;3002;42.642;24.812;2023-05-11T00:44:03;96859.56;;;12.68;85.97
5954;BME280;3002;42.642;24.812;2023-05-11T00:46:28;96888.06;;;12.69;89.57
5954;BME280;3002;42.642;24.812;2023-05-11T00:48:54;96852.78;;;12.71;87.51
5954;BME280;3002;42.642;24.812;2023-05-11T00:51:23;96877.59;;;13.05;86.15
5954;BME280;3002;42.642;24.812;2023-05-11T00:53:49;96893.53;;;13.39;84.05
5954;BME280;3002;42.642;24.812;2023-05-11T00:56:16;96872.69;;;13.45;83.96
5954;BME280;3002;42.642;24.812;2023-05-11T00:58:41;96876.50;;;13.25;87.66
5954;BME280;3002;42.642;24.812;2023-05-11T01:01:07;96844.03;;;13.17;88.02
5954;BME280;3002;42.642;24.812;2023-05-11T01:03:33;96876.81;;;13.05;89.83
5954;BME280;3002;42.642;24.812;2023-05-11T01:08:51;96896.44;;;13.05;93.17
5954;BME280;3002;42.642;24.812;2023-05-11T01:11:46;96884.59;;;12.88;95.47
5954;BME280;3002;42.642;24.812;2023-05-11T01:15:17;96894.03;;;13.42;92.05
5954;BME280;3002;42.642;24.812;2023-05-11T01:17:17;96894.03;;;13.42;87.90
5954;BME280;3002;42.642;24.812;2023-05-11T01:19:50;96860.69;;;13.19;87.83
5954;BME280;3002;42.642;24.812;2023-05-11T01:25:39;96901.38;;;13.17;89.88
5954;BME280;3002;42.642;24.812;2023-05-11T01:28:22;96908.56;;;13.27;89.71
5954;BME280;3002;42.642;24.812;2023-05-11T01:30:53;96894.91;;;12.99;89.83
5954;BME280;3002;42.642;24.812;2023-05-11T01:33:25;96905.47;;;13.33;88.81
5954;BME280;3002;42.642;24.812;2023-05-11T01:35:55;96890.50;;;12.90;91.74
5954;BME280;3002;42.642;24.812;2023-05-11T01:38:25;96918.28;;;13.04;91.08
5954;BME280;3002;42.642;24.812;2023-05-11T01:40:55;96900.31;;;12.80;91.30
5954;BME280;3002;42.642;24.812;2023-05-11T01:43:24;96912.91;;;13.23;90.66
5954;BME280;3002;42.642;24.812;2023-05-11T01:45:52;96897.25;;;13.06;91.86
5954;BME280;3002;42.642;24.812;2023-05-11T01:48:22;96915.88;;;13.40;89.28
5954;BME280;3002;42.642;24.812;2023-05-11T01:50:50;96871.72;;;13.03;87.00
5954;BME280;3002;42.642;24.812;2023-05-11T01:53:17;96874.63;;;12.88;87.94
5954;BME280;3002;42.642;24.812;2023-05-11T01:55:46;96891.00;;;13.10;87.33
5954;BME280;3002;42.642;24.812;2023-05-11T01:58:13;96877.31;;;12.88;88.76
5954;BME280;3002;42.642;24.812;2023-05-11T02:00:42;96891.56;;;12.89;88.97
5954;BME280;3002;42.642;24.812;2023-05-11T02:03:09;96875.22;;;12.66;91.23
5954;BME280;3002;42.642;24.812;2023-05-11T02:05:35;96905.84;;;13.08;87.02
5954;BME280;3002;42.642;24.812;2023-05-11T02:08:03;96895.66;;;13.05;88.15
5954;BME280;3002;42.642;24.812;2023-05-11T02:10:30;96867.28;;;12.75;89.19
5954;BME280;3002;42.642;24.812;2023-05-11T02:12:58;96858.03;;;12.81;89.08
5954;BME280;3002;42.642;24.812;2023-05-11T02:15:25;96893.25;;;13.22;87.04
5954;BME280;3002;42.642;24.812;2023-05-11T02:17:52;96894.72;;;13.33;86.05
5954;BME280;3002;42.642;24.812;2023-05-11T02:20:19;96869.03;;;12.84;91.49
5954;BME280;3002;42.642;24.812;2023-05-11T02:22:45;96861.09;;;12.55;97.44
5954;BME280;3002;42.642;24.812;2023-05-11T02:25:11;96876.44;;;12.93;94.10
5954;BME280;3002;42.642;24.812;2023-05-11T02:27:37;96847.94;;;12.54;97.60
5954;BME280;3002;42.642;24.812;2023-05-11T02:30:04;96892.66;;;12.88;96.79
5954;BME280;3002;42.642;24.812;2023-05-11T02:32:34;96861.34;;;12.78;96.86
5954;BME280;3002;42.642;24.812;2023-05-11T02:35:10;96871.44;;;12.86;94.48
5954;BME280;3002;42.642;24.812;2023-05-11T02:37:41;96855.50;;;12.90;94.91
5954;BME280;3002;42.642;24.812;2023-05-11T02:40:16;96865.22;;;13.23;92.21
5954;BME280;3002;42.642;24.812;2023-05-11T02:42:44;96850.66;;;13.24;89.18
5954;BME280;3002;42.642;24.812;2023-05-11T02:45:14;96863.56;;;13.27;88.28
5954;BME280;3002;42.642;24.812;2023-05-11T02:47:46;96842.38;;;12.83;91.68
5954;BME280;3002;42.642;24.812;2023-05-11T02:50:13;96845.59;;;13.04;92.19
5954;BME280;3002;42.642;24.812;2023-05-11T02:52:43;96872.06;;;13.34;89.98
5954;BME280;3002;42.642;24.812;2023-05-11T02:55:10;96871.56;;;13.32;87.48
5954;BME280;3002;42.642;24.812;2023-05-11T02:57:39;96841.75;;;12.91;89.06
5954;BME280;3002;42.642;24.812;2023-05-11T03:00:06;96880.66;;;12.99;90.48
5954;BME280;3002;42.642;24.812;2023-05-11T03:02:32;96878.63;;;12.91;90.53
5954;BME280;3002;42.642;24.812;2023-05-11T03:04:58;96833.81;;;12.81;89.37
5954;BME280;3002;42.642;24.812;2023-05-11T03:07:27;96880.72;;;13.12;89.60
5954;BME280;3002;42.642;24.812;2023-05-11T03:09:53;96899.88;;;13.11;90.24
5954;BME280;3002;42.642;24.812;2023-05-11T03:12:19;96878.47;;;13.01;88.32
5954;BME280;3002;42.642;24.812;2023-05-11T03:14:46;96901.75;;;13.10;88.05
5954;BME280;3002;42.642;24.812;2023-05-11T03:17:14;96893.31;;;13.17;86.94
5954;BME280;3002;42.642;24.812;2023-05-11T03:19:41;96903.50;;;13.20;87.61
5954;BME280;3002;42.642;24.812;2023-05-11T03:22:08;96890.69;;;13.12;88.34
5954;BME280;3002;42.642;24.812;2023-05-11T03:24:35;96868.19;;;12.46;91.90
5954;BME280;3002;42.642;24.812;2023-05-11T03:27:01;96885.31;;;12.93;92.15
5954;BME280;3002;42.642;24.812;2023-05-11T03:29:28;96874.47;;;12.98;92.85
5954;BME280;3002;42.642;24.812;2023-05-11T03:31:55;96894.09;;;13.18;91.47
5954;BME280;3002;42.642;24.812;2023-05-11T03:34:21;96892.47;;;12.84;95.27
5954;BME280;3002;42.642;24.812;2023-05-11T03:36:51;96887.09;;;13.22;92.54
5954;BME280;3002;42.642;24.812;2023-05-11T03:39:18;96883.13;;;13.14;92.46
5954;BME280;3002;42.642;24.812;2023-05-11T03:41:48;96883.25;;;13.42;90.25
5954;BME280;3002;42.642;24.812;2023-05-11T03:44:16;96866.69;;;12.59;94.67
5954;BME280;3002;42.642;24.812;2023-05-11T03:46:45;96892.88;;;13.10;93.58
5954;BME280;3002;42.642;24.812;2023-05-11T03:49:12;96866.41;;;12.98;91.92
5954;BME280;3002;42.642;24.812;2023-05-11T03:51:39;96864.00;;;12.97;91.62
5954;BME280;3002;42.642;24.812;2023-05-11T03:54:05;96896.72;;;13.42;87.71
5954;BME280;3002;42.642;24.812;2023-05-11T03:56:35;96896.66;;;13.60;86.00
5954;BME280;3002;42.642;24.812;2023-05-11T03:59:02;96863.13;;;13.20;87.64
5954;BME280;3002;42.642;24.812;2023-05-11T04:01:29;96878.28;;;12.97;91.55
5954;BME280;3002;42.642;24.812;2023-05-11T04:03:55;96880.91;;;13.21;89.27
5954;BME280;3002;42.642;24.812;2023-05-11T04:06:21;96899.00;;;13.16;91.42
5954;BME280;3002;42.642;24.812;2023-05-11T04:08:48;96912.28;;;13.77;87.13
5954;BME280;3002;42.642;24.812;2023-05-11T04:11:14;96916.25;;;13.66;86.24
5954;BME280;3002;42.642;24.812;2023-05-11T04:13:40;96911.22;;;13.46;87.55
5954;BME280;3002;42.642;24.812;2023-05-11T04:16:06;96919.97;;;13.70;85.68
5954;BME280;3002;42.642;24.812;2023-05-11T04:18:31;96920.69;;;13.89;82.53
5954;BME280;3002;42.642;24.812;2023-05-11T04:20:57;96931.28;;;13.86;83.86
5954;BME280;3002;42.642;24.812;2023-05-11T04:23:22;96910.09;;;13.79;85.15
5954;BME280;3002;42.642;24.812;2023-05-11T04:25:54;96927.91;;;13.94;85.70
5954;BME280;3002;42.642;24.812;2023-05-11T04:28:20;96913.47;;;13.71;86.80
5954;BME280;3002;42.642;24.812;2023-05-11T04:30:55;96920.22;;;13.55;88.76
5954;BME280;3002;42.642;24.812;2023-05-11T04:33:21;96897.84;;;13.54;89.99
5954;BME280;3002;42.642;24.812;2023-05-11T04:35:49;96905.81;;;13.46;89.87
5954;BME280;3002;42.642;24.812;2023-05-11T04:38:15;96914.91;;;13.82;87.03
5954;BME280;3002;42.642;24.812;2023-05-11T04:40:41;96907.94;;;13.95;85.40
5954;BME280;3002;42.642;24.812;2023-05-11T04:43:06;96897.03;;;13.86;89.75
5954;BME280;3002;42.642;24.812;2023-05-11T04:45:32;96896.44;;;13.89;85.28
5954;BME280;3002;42.642;24.812;2023-05-11T04:47:59;96911.03;;;13.88;88.53
5954;BME280;3002;42.642;24.812;2023-05-11T04:50:24;96905.47;;;14.40;83.44
5954;BME280;3002;42.642;24.812;2023-05-11T04:52:50;96910.06;;;14.12;85.74
5954;BME280;3002;42.642;24.812;2023-05-11T04:55:15;96906.38;;;14.35;84.51
5954;BME280;3002;42.642;24.812;2023-05-11T04:57:41;96897.66;;;14.38;82.26
5954;BME280;3002;42.642;24.812;2023-05-11T05:00:07;96908.16;;;14.12;82.68
5954;BME280;3002;42.642;24.812;2023-05-11T05:02:33;96921.63;;;14.26;81.26
5954;BME280;3002;42.642;24.812;2023-05-11T05:04:59;96896.03;;;13.82;82.48
5954;BME280;3002;42.642;24.812;2023-05-11T05:07:25;96923.84;;;14.10;83.46
5954;BME280;3002;42.642;24.812;2023-05-11T05:09:51;96916.84;;;14.23;83.15
5954;BME280;3002;42.642;24.812;2023-05-11T05:12:16;96901.16;;;14.66;77.85
5954;BME280;3002;42.642;24.812;2023-05-11T05:14:42;96891.13;;;14.81;76.20
5954;BME280;3002;42.642;24.812;2023-05-11T05:17:07;96922.47;;;15.18;76.14
5954;BME280;3002;42.642;24.812;2023-05-11T05:19:33;96906.94;;;14.73;76.31
5954;BME280;3002;42.642;24.812;2023-05-11T05:21:59;96921.94;;;14.80;76.94
5954;BME280;3002;42.642;24.812;2023-05-11T05:24:24;96927.25;;;14.57;82.37
5954;BME280;3002;42.642;24.812;2023-05-11T05:26:50;96940.31;;;14.91;79.30
5954;BME280;3002;42.642;24.812;2023-05-11T05:29:15;96921.09;;;14.93;77.80
5954;BME280;3002;42.642;24.812;2023-05-11T05:31:40;96898.34;;;14.85;79.20
5954;BME280;3002;42.642;24.812;2023-05-11T05:34:06;96933.38;;;15.35;73.59
5954;BME280;3002;42.642;24.812;2023-05-11T05:36:31;96936.06;;;14.49;79.73
5954;BME280;3002;42.642;24.812;2023-05-11T05:38:57;96926.31;;;14.07;83.75
5954;BME280;3002;42.642;24.812;2023-05-11T05:41:22;96926.63;;;13.59;84.72
5954;BME280;3002;42.642;24.812;2023-05-11T05:43:48;96910.44;;;14.88;78.46
5954;BME280;3002;42.642;24.812;2023-05-11T05:46:17;96924.91;;;15.28;76.81
5954;BME280;3002;42.642;24.812;2023-05-11T05:48:42;96900.72;;;15.45;74.76
5954;BME280;3002;42.642;24.812;2023-05-11T05:51:08;96937.31;;;15.65;74.75
5954;BME280;3002;42.642;24.812;2023-05-11T05:53:33;96915.16;;;15.41;74.75
5954;BME280;3002;42.642;24.812;2023-05-11T05:55:59;96933.38;;;15.71;71.49
5954;BME280;3002;42.642;24.812;2023-05-11T05:58:24;96944.72;;;15.60;74.64
5954;BME280;3002;42.642;24.812;2023-05-11T06:00:50;96938.56;;;15.45;73.14
5954;BME280;3002;42.642;24.812;2023-05-11T06:05:42;96939.19;;;15.65;72.73
5954;BME280;3002;42.642;24.812;2023-05-11T06:08:07;96948.56;;;15.45;71.42
5954;BME280;3002;42.642;24.812;2023-05-11T06:10:39;96947.19;;;15.47;71.44
5954;BME280;3002;42.642;24.812;2023-05-11T06:13:06;96953.19;;;15.89;69.97
5954;BME280;3002;42.642;24.812;2023-05-11T06:15:32;96945.63;;;15.55;69.38
5954;BME280;3002;42.642;24.812;2023-05-11T06:17:57;96948.03;;;16.01;68.15
5954;BME280;3002;42.642;24.812;2023-05-11T06:20:23;96947.63;;;16.17;66.51
5954;BME280;3002;42.642;24.812;2023-05-11T06:22:48;96974.53;;;15.32;71.18
5954;BME280;3002;42.642;24.812;2023-05-11T06:25:14;96953.69;;;16.14;67.00
5954;BME280;3002;42.642;24.812;2023-05-11T06:27:40;96927.47;;;15.69;67.41
5954;BME280;3002;42.642;24.812;2023-05-11T06:30:06;96945.19;;;16.06;67.41
5954;BME280;3002;42.642;24.812;2023-05-11T06:32:32;96945.13;;;16.20;67.25
5954;BME280;3002;42.642;24.812;2023-05-11T06:34:58;96963.06;;;16.47;65.66
5954;BME280;3002;42.642;24.812;2023-05-11T06:37:23;96951.22;;;16.35;65.78
5954;BME280;3002;42.642;24.812;2023-05-11T06:39:49;96951.34;;;14.95;69.78
5954;BME280;3002;42.642;24.812;2023-05-11T06:42:14;96950.03;;;13.77;78.81
5954;BME280;3002;42.642;24.812;2023-05-11T06:44:40;96938.03;;;14.30;76.80
5954;BME280;3002;42.642;24.812;2023-05-11T06:47:08;96944.44;;;15.25;71.25
5954;BME280;3002;42.642;24.812;2023-05-11T06:49:34;96930.88;;;16.46;64.46
5954;BME280;3002;42.642;24.812;2023-05-11T06:52:00;96944.78;;;17.19;60.99
5954;BME280;3002;42.642;24.812;2023-05-11T06:54:25;96938.38;;;17.66;59.09
5954;BME280;3002;42.642;24.812;2023-05-11T06:56:51;96971.44;;;17.51;61.76
5954;BME280;3002;42.642;24.812;2023-05-11T06:59:16;96939.63;;;16.82;61.55
5954;BME280;3002;42.642;24.812;2023-05-11T07:01:42;96942.06;;;17.19;60.93
5954;BME280;3002;42.642;24.812;2023-05-11T07:04:07;96941.88;;;17.15;61.26
5954;BME280;3002;42.642;24.812;2023-05-11T07:06:33;96969.09;;;18.23;58.44
5954;BME280;3002;42.642;24.812;2023-05-11T07:08:58;96957.50;;;18.05;57.42
5954;BME280;3002;42.642;24.812;2023-05-11T07:11:24;96949.38;;;17.27;58.47
5954;BME280;3002;42.642;24.812;2023-05-11T07:13:50;96968.56;;;17.82;59.20
5954;BME280;3002;42.642;24.812;2023-05-11T07:16:16;96962.47;;;17.85;59.00
5954;BME280;3002;42.642;24.812;2023-05-11T07:18:41;96926.09;;;17.08;58.78
5954;BME280;3002;42.642;24.812;2023-05-11T07:21:07;96957.38;;;17.84;58.90
5954;BME280;3002;42.642;24.812;2023-05-11T07:23:33;96949.75;;;18.33;56.79
5954;BME280;3002;42.642;24.812;2023-05-11T07:25:58;96942.69;;;17.67;56.77
5954;BME280;3002;42.642;24.812;2023-05-11T07:28:24;96951.44;;;17.99;56.00
5954;BME280;3002;42.642;24.812;2023-05-11T07:30:49;96914.78;;;17.15;57.64
5954;BME280;3002;42.642;24.812;2023-05-11T07:33:15;96921.91;;;16.37;59.68
5954;BME280;3002;42.642;24.812;2023-05-11T07:35:40;96943.34;;;15.62;62.75
5954;BME280;3002;42.642;24.812;2023-05-11T07:38:06;96922.81;;;16.63;59.45
5954;BME280;3002;42.642;24.812;2023-05-11T07:40:32;96955.13;;;16.51;59.68
5954;BME280;3002;42.642;24.812;2023-05-11T07:42:59;96957.84;;;17.69;59.12
5954;BME280;3002;42.642;24.812;2023-05-11T07:45:24;96921.38;;;16.66;59.65
5954;BME280;3002;42.642;24.812;2023-05-11T07:47:50;96954.06;;;16.69;60.89
5954;BME280;3002;42.642;24.812;2023-05-11T07:50:16;96954.75;;;16.83;61.38
5954;BME280;3002;42.642;24.812;2023-05-11T07:52:42;96923.56;;;17.03;59.44
5954;BME280;3002;42.642;24.812;2023-05-11T07:55:08;96931.00;;;15.56;62.79
5954;BME280;3002;42.642;24.812;2023-05-11T07:57:33;96946.44;;;16.31;62.72
5954;BME280;3002;42.642;24.812;2023-05-11T07:59:59;96930.88;;;17.03;60.93
5954;BME280;3002;42.642;24.812;2023-05-11T08:02:24;96939.81;;;16.46;64.85
5954;BME280;3002;42.642;24.812;2023-05-11T08:04:50;96956.09;;;17.21;62.18
5954;BME280;3002;42.642;24.812;2023-05-11T08:07:15;96968.66;;;16.99;64.01
5954;BME280;3002;42.642;24.812;2023-05-11T08:09:41;96950.50;;;15.89;66.24
5954;BME280;3002;42.642;24.812;2023-05-11T08:12:08;96940.06;;;16.27;64.29
5954;BME280;3002;42.642;24.812;2023-05-11T08:14:33;96960.41;;;15.35;68.65
5954;BME280;3002;42.642;24.812;2023-05-11T08:16:58;96951.72;;;16.76;63.11
5954;BME280;3002;42.642;24.812;2023-05-11T08:19:24;96954.34;;;17.51;58.95
5954;BME280;3002;42.642;24.812;2023-05-11T08:21:50;96931.72;;;17.47;58.35
5954;BME280;3002;42.642;24.812;2023-05-11T08:24:15;96943.28;;;18.08;57.01
5954;BME280;3002;42.642;24.812;2023-05-11T08:26:55;96972.84;;;17.31;59.23
5954;BME280;3002;42.642;24.812;2023-05-11T08:29:21;96960.25;;;17.09;58.50
5954;BME280;3002;42.642;24.812;2023-05-11T08:31:48;96966.63;;;17.91;57.44
5954;BME280;3002;42.642;24.812;2023-05-11T08:34:13;96957.09;;;18.79;56.01
5954;BME280;3002;42.642;24.812;2023-05-11T08:36:39;96947.53;;;19.44;52.32
5954;BME280;3002;42.642;24.812;2023-05-11T08:39:05;96943.16;;;17.96;55.50
5954;BME280;3002;42.642;24.812;2023-05-11T08:41:30;96953.38;;;17.38;58.65
5954;BME280;3002;42.642;24.812;2023-05-11T08:43:56;96961.13;;;18.64;53.73
5954;BME280;3002;42.642;24.812;2023-05-11T08:46:24;96929.34;;;18.27;56.00
5954;BME280;3002;42.642;24.812;2023-05-11T08:48:54;96938.25;;;17.46;56.06
5954;BME280;3002;42.642;24.812;2023-05-11T08:51:21;96965.28;;;19.00;53.67
5954;BME280;3002;42.642;24.812;2023-05-11T08:53:47;96961.00;;;18.52;54.39
5954;BME280;3002;42.642;24.812;2023-05-11T08:56:14;96932.38;;;18.93;54.18
5954;BME280;3002;42.642;24.812;2023-05-11T08:58:41;96933.34;;;18.67;53.72
5954;BME280;3002;42.642;24.812;2023-05-11T09:01:09;96955.13;;;17.95;56.16
5954;BME280;3002;42.642;24.812;2023-05-11T09:03:38;96919.72;;;18.38;54.95
5954;BME280;3002;42.642;24.812;2023-05-11T09:06:06;96951.69;;;20.17;50.46
5954;BME280;3002;42.642;24.812;2023-05-11T09:08:34;96955.44;;;20.70;50.37
5954;BME280;3002;42.642;24.812;2023-05-11T09:11:03;96926.34;;;19.92;50.14
5954;BME280;3002;42.642;24.812;2023-05-11T09:13:30;96950.03;;;21.34;48.35
5954;BME280;3002;42.642;24.812;2023-05-11T09:15:56;96913.72;;;21.06;47.88
5954;BME280;3002;42.642;24.812;2023-05-11T09:18:22;96903.50;;;20.42;48.31
5954;BME280;3002;42.642;24.812;2023-05-11T09:20:49;96939.63;;;21.00;48.99
5954;BME280;3002;42.642;24.812;2023-05-11T09:23:15;96928.25;;;20.85;49.21
5954;BME280;3002;42.642;24.812;2023-05-11T09:25:44;96926.09;;;20.91;49.48
5954;BME280;3002;42.642;24.812;2023-05-11T09:28:12;96925.44;;;20.70;48.63
5954;BME280;3002;42.642;24.812;2023-05-11T09:30:41;96915.31;;;20.95;48.21
5954;BME280;3002;42.642;24.812;2023-05-11T09:33:06;96928.84;;;20.79;50.33
5954;BME280;3002;42.642;24.812;2023-05-11T09:35:33;96925.31;;;20.91;50.28
5954;BME280;3002;42.642;24.812;2023-05-11T09:38:09;96924.44;;;20.04;51.63
5954;BME280;3002;42.642;24.812;2023-05-11T09:40:37;96909.88;;;19.88;50.80
5954;BME280;3002;42.642;24.812;2023-05-11T09:43:15;96920.13;;;19.70;50.85
5954;BME280;3002;42.642;24.812;2023-05-11T09:45:43;96902.19;;;20.15;50.94
5954;BME280;3002;42.642;24.812;2023-05-11T09:50:58;96916.91;;;20.83;48.58
5954;BME280;3002;42.642;24.812;2023-05-11T09:53:34;96899.00;;;20.58;49.40
5954;BME280;3002;42.642;24.812;2023-05-11T09:56:00;96902.59;;;20.74;48.83
5954;BME280;3002;42.642;24.812;2023-05-11T09:58:26;96878.75;;;21.64;47.38
5954;BME280;3002;42.642;24.812;2023-05-11T10:00:59;96893.06;;;20.56;48.98
5954;BME280;3002;42.642;24.812;2023-05-11T10:03:25;96873.91;;;20.65;49.00
5954;BME280;3002;42.642;24.812;2023-05-11T10:05:59;96878.06;;;19.47;50.36
5954;BME280;3002;42.642;24.812;2023-05-11T10:08:29;96907.75;;;18.98;51.30
5954;BME280;3002;42.642;24.812;2023-05-11T10:11:13;96895.59;;;19.91;49.82
5954;BME280;3002;42.642;24.812;2023-05-11T10:13:39;96887.75;;;20.60;48.42
5954;BME280;3002;42.642;24.812;2023-05-11T10:16:05;96897.50;;;20.61;48.79
5954;BME280;3002;42.642;24.812;2023-05-11T10:18:32;96853.72;;;21.06;47.85
5954;BME280;3002;42.642;24.812;2023-05-11T10:20:58;96896.53;;;20.20;48.49
5954;BME280;3002;42.642;24.812;2023-05-11T10:23:24;96885.56;;;20.16;50.32
5954;BME280;3002;42.642;24.812;2023-05-11T10:25:53;96882.81;;;20.04;50.03
5954;BME280;3002;42.642;24.812;2023-05-11T10:28:19;96882.50;;;20.30;50.38
5954;BME280;3002;42.642;24.812;2023-05-11T10:30:46;96846.28;;;20.78;48.34
5954;BME280;3002;42.642;24.812;2023-05-11T10:33:12;96883.44;;;21.11;48.56
5954;BME280;3002;42.642;24.812;2023-05-11T10:35:38;96853.22;;;20.76;48.06
5954;BME280;3002;42.642;24.812;2023-05-11T10:38:05;96875.81;;;21.29;48.66
5954;BME280;3002;42.642;24.812;2023-05-11T10:40:36;96877.88;;;21.20;46.81
5954;BME280;3002;42.642;24.812;2023-05-11T10:57:07;96882.03;;;19.16;52.69
5954;BME280;3002;42.642;24.812;2023-05-11T11:00:02;96872.47;;;19.97;50.49
5954;BME280;3002;42.642;24.812;2023-05-11T11:02:38;96867.59;;;20.03;49.58
5954;BME280;3002;42.642;24.812;2023-05-11T11:05:04;96878.09;;;20.50;48.33
5954;BME280;3002;42.642;24.812;2023-05-11T11:07:56;96876.09;;;20.01;49.88
5954;BME280;3002;42.642;24.812;2023-05-11T11:10:33;96890.03;;;19.13;51.32
5954;BME280;3002;42.642;24.812;2023-05-11T11:13:07;96885.03;;;19.36;51.30
5954;BME280;3002;42.642;24.812;2023-05-11T11:18:27;96879.00;;;19.51;51.21
5954;BME280;3002;42.642;24.812;2023-05-11T11:20:56;96879.00;;;18.67;51.98
5954;BME280;3002;42.642;24.812;2023-05-11T11:23:43;96876.28;;;18.59;52.87
5954;BME280;3002;42.642;24.812;2023-05-11T11:26:11;96850.06;;;17.31;54.79
5954;BME280;3002;42.642;24.812;2023-05-11T11:31:27;96847.56;;;17.90;53.25
5954;BME280;3002;42.642;24.812;2023-05-11T11:33:55;96879.09;;;18.80;52.87
5954;BME280;3002;42.642;24.812;2023-05-11T11:39:27;96881.34;;;19.61;50.03
5954;BME280;3002;42.642;24.812;2023-05-11T11:42:04;96854.84;;;18.95;51.55
5954;BME280;3002;42.642;24.812;2023-05-11T11:44:34;96852.34;;;18.61;52.56
5954;BME280;3002;42.642;24.812;2023-05-11T11:47:19;96876.16;;;17.87;55.00
5954;BME280;3002;42.642;24.812;2023-05-11T11:49:54;96859.44;;;17.51;56.36
5954;BME280;3002;42.642;24.812;2023-05-11T11:54:52;96859.47;;;19.49;51.80
5954;BME280;3002;42.642;24.812;2023-05-11T12:00:05;96857.66;;;19.62;50.70
5954;BME280;3002;42.642;24.812;2023-05-11T12:02:41;96860.16;;;18.62;52.16
5954;BME280;3002;42.642;24.812;2023-05-11T12:07:41;96832.09;;;19.00;51.27
5954;BME280;3002;42.642;24.812;2023-05-11T12:10:07;96850.53;;;18.94;52.58
5954;BME280;3002;42.642;24.812;2023-05-11T12:12:36;96843.31;;;18.98;52.16
5954;BME280;3002;42.642;24.812;2023-05-11T12:15:03;96832.03;;;19.42;52.42
5954;BME280;3002;42.642;24.812;2023-05-11T12:17:36;96844.53;;;19.55;53.00
5954;BME280;3002;42.642;24.812;2023-05-11T12:20:17;96837.81;;;18.86;52.75
5954;BME280;3002;42.642;24.812;2023-05-11T12:22:43;96835.66;;;19.13;52.17
5954;BME280;3002;42.642;24.812;2023-05-11T12:25:12;96835.69;;;19.46;52.65
5954;BME280;3002;42.642;24.812;2023-05-11T12:27:52;96838.84;;;19.48;51.97
5954;BME280;3002;42.642;24.812;2023-05-11T12:30:29;96814.72;;;19.80;52.13
5954;BME280;3002;42.642;24.812;2023-05-11T12:32:55;96826.19;;;19.97;51.01
5954;BME280;3002;42.642;24.812;2023-05-11T12:35:28;96820.59;;;19.69;51.72
5954;BME280;3002;42.642;24.812;2023-05-11T12:37:54;96822.66;;;19.51;52.32
5954;BME280;3002;42.642;24.812;2023-05-11T12:40:20;96817.69;;;19.53;52.52
5954;BME280;3002;42.642;24.812;2023-05-11T12:42:54;96801.53;;;19.36;52.13
5954;BME280;3002;42.642;24.812;2023-05-11T12:45:20;96806.47;;;19.22;51.88
5954;BME280;3002;42.642;24.812;2023-05-11T12:47:51;96808.38;;;20.12;50.66
5954;BME280;3002;42.642;24.812;2023-05-11T12:50:18;96810.88;;;20.42;49.53
5954;BME280;3002;42.642;24.812;2023-05-11T12:52:43;96796.69;;;19.99;51.09
5954;BME280;3002;42.642;24.812;2023-05-11T12:55:10;96804.69;;;19.59;50.80
5954;BME280;3002;42.642;24.812;2023-05-11T12:57:37;96806.56;;;20.04;49.96
5954;BME280;3002;42.642;24.812;2023-05-11T13:00:14;96791.25;;;20.24;51.21
5954;BME280;3002;42.642;24.812;2023-05-11T13:02:51;96753.91;;;20.37;49.28
5954;BME280;3002;42.642;24.812;2023-05-11T13:05:17;96785.78;;;20.36;49.34
5954;BME280;3002;42.642;24.812;2023-05-11T13:07:44;96785.13;;;19.90;50.54
5954;BME280;3002;42.642;24.812;2023-05-11T13:10:11;96797.84;;;20.47;47.90
5954;BME280;3002;42.642;24.812;2023-05-11T13:12:51;96785.78;;;21.01;46.67
5954;BME280;3002;42.642;24.812;2023-05-11T13:15:18;96779.22;;;20.25;48.37
5954;BME280;3002;42.642;24.812;2023-05-11T13:17:44;96757.78;;;20.48;47.73
5954;BME280;3002;42.642;24.812;2023-05-11T13:20:23;96777.28;;;20.50;47.33
5954;BME280;3002;42.642;24.812;2023-05-11T13:22:51;96759.59;;;20.07;48.50
5954;BME280;3002;42.642;24.812;2023-05-11T13:25:26;96752.09;;;19.22;50.44
5954;BME280;3002;42.642;24.812;2023-05-11T13:27:51;96766.44;;;19.43;47.80
5954;BME280;3002;42.642;24.812;2023-05-11T13:30:17;96762.88;;;20.13;48.10
5954;BME280;3002;42.642;24.812;2023-05-11T13:32:42;96751.56;;;21.03;46.14
5954;BME280;3002;42.642;24.812;2023-05-11T13:35:08;96760.41;;;21.13;46.11
5954;BME280;3002;42.642;24.812;2023-05-11T13:37:34;96743.66;;;22.05;45.01
5954;BME280;3002;42.642;24.812;2023-05-11T13:40:00;96736.84;;;20.64;45.38
5954;BME280;3002;42.642;24.812;2023-05-11T13:42:26;96723.06;;;21.01;46.76
5954;BME280;3002;42.642;24.812;2023-05-11T13:44:52;96718.31;;;19.11;50.80
5954;BME280;3002;42.642;24.812;2023-05-11T13:47:18;96755.22;;;19.45;48.42
5954;BME280;3002;42.642;24.812;2023-05-11T13:49:43;96749.91;;;20.58;47.44
5954;BME280;3002;42.642;24.812;2023-05-11T13:52:10;96733.91;;;20.32;45.88
5954;BME280;3002;42.642;24.812;2023-05-11T13:54:35;96744.59;;;20.50;46.04